sensor_id;sensor_type;location;lat;lon;timestamp;P1;durP1;ratioP1;P2;durP2;ratioP2
6667;SDS011;3370;47.712;9.082;2023-06-26T00:02:21;9.60;;;8.57;;
6667;SDS011;3370;47.712;9.082;2023-06-26T00:04:47;9.13;;;7.43;;
6667;SDS011;3370;47.712;9.082;2023-06-26T00:07:13;7.97;;;7.17;;
6667;SDS011;3370;47.712;9.082;2023-06-26T00:09:38;7.97;;;7.17;;
6667;SDS011;3370;47.712;9.082;2023-06-26T00:12:04;9.17;;;7.77;;
6667;SDS011;3370;47.712;9.082;2023-06-26T00:14:30;11.50;;;7.83;;
6667;SDS011;3370;47.712;9.082;2023-06-26T00:16:56;13.23;;;8.27;;
6667;SDS011;3370;47.712;9.082;2023-06-26T00:19:22;9.40;;;7.70;;
6667;SDS011;3370;47.712;9.082;2023-06-26T00:21:48;8.30;;;7.40;;
6667;SDS011;3370;47.712;9.082;2023-06-26T00:24:14;11.20;;;8.10;;
6667;SDS011;3370;47.712;9.082;2023-06-26T00:26:39;10.07;;;8.93;;
6667;SDS011;3370;47.712;9.082;2023-06-26T00:29:06;9.10;;;8.13;;
6667;SDS011;3370;47.712;9.082;2023-06-26T00:31:31;9.87;;;8.30;;
6667;SDS011;3370;47.712;9.082;2023-06-26T00:33:57;9.20;;;8.20;;
6667;SDS011;3370;47.712;9.082;2023-06-26T00:36:23;9.00;;;7.63;;
6667;SDS011;3370;47.712;9.082;2023-06-26T00:38:49;8.90;;;7.83;;
6667;SDS011;3370;47.712;9.082;2023-06-26T00:41:15;10.40;;;8.00;;
6667;SDS011;3370;47.712;9.082;2023-06-26T00:43:41;8.70;;;7.80;;
6667;SDS011;3370;47.712;9.082;2023-06-26T00:46:09;10.57;;;8.10;;
6667;SDS011;3370;47.712;9.082;2023-06-26T00:48:37;9.77;;;8.40;;
6667;SDS011;3370;47.712;9.082;2023-06-26T00:51:05;9.40;;;7.87;;
6667;SDS011;3370;47.712;9.082;2023-06-26T00:53:32;10.17;;;8.40;;
6667;SDS011;3370;47.712;9.082;2023-06-26T00:55:59;13.10;;;7.37;;
6667;SDS011;3370;47.712;9.082;2023-06-26T00:58:26;10.27;;;8.57;;
6667;SDS011;3370;47.712;9.082;2023-06-26T01:00:51;10.20;;;9.20;;
6667;SDS011;3370;47.712;9.082;2023-06-26T01:03:18;12.03;;;8.40;;
6667;SDS011;3370;47.712;9.082;2023-06-26T01:05:46;9.10;;;7.83;;
6667;SDS011;3370;47.712;9.082;2023-06-26T01:08:14;11.33;;;8.93;;
6667;SDS011;3370;47.712;9.082;2023-06-26T01:10:42;11.27;;;8.93;;
6667;SDS011;3370;47.712;9.082;2023-06-26T01:13:08;8.90;;;8.00;;
6667;SDS011;3370;47.712;9.082;2023-06-26T01:15:34;9.30;;;8.27;;
6667;SDS011;3370;47.712;9.082;2023-06-26T01:18:00;10.10;;;8.43;;
6667;SDS011;3370;47.712;9.082;2023-06-26T01:20:30;9.47;;;8.40;;
6667;SDS011;3370;47.712;9.082;2023-06-26T01:23:04;10.47;;;7.90;;
6667;SDS011;3370;47.712;9.082;2023-06-26T01:28:47;13.00;;;8.30;;
6667;SDS011;3370;47.712;9.082;2023-06-26T01:31:16;13.93;;;8.77;;
6667;SDS011;3370;47.712;9.082;2023-06-26T01:33:44;9.80;;;8.80;;
6667;SDS011;3370;47.712;9.082;2023-06-26T01:36:10;9.93;;;7.90;;
6667;SDS011;3370;47.712;9.082;2023-06-26T01:38:37;12.40;;;8.40;;
6667;SDS011;3370;47.712;9.082;2023-06-26T01:41:03;10.30;;;7.30;;
6667;SDS011;3370;47.712;9.082;2023-06-26T01:43:50;9.13;;;8.13;;
6667;SDS011;3370;47.712;9.082;2023-06-26T01:46:30;11.43;;;7.93;;
6667;SDS011;3370;47.712;9.082;2023-06-26T01:49:25;12.13;;;9.67;;
6667;SDS011;3370;47.712;9.082;2023-06-26T01:52:20;11.10;;;8.60;;
6667;SDS011;3370;47.712;9.082;2023-06-26T01:57:55;8.73;;;7.83;;
6667;SDS011;3370;47.712;9.082;2023-06-26T02:00:23;8.70;;;7.80;;
6667;SDS011;3370;47.712;9.082;2023-06-26T02:02:51;11.47;;;8.60;;
6667;SDS011;3370;47.712;9.082;2023-06-26T02:05:17;13.70;;;8.30;;
6667;SDS011;3370;47.712;9.082;2023-06-26T02:07:43;10.83;;;9.33;;
6667;SDS011;3370;47.712;9.082;2023-06-26T02:10:09;10.27;;;9.10;;
6667;SDS011;3370;47.712;9.082;2023-06-26T02:12:36;10.43;;;8.20;;
6667;SDS011;3370;47.712;9.082;2023-06-26T02:15:02;10.07;;;7.90;;
6667;SDS011;3370;47.712;9.082;2023-06-26T02:17:29;10.33;;;8.33;;
6667;SDS011;3370;47.712;9.082;2023-06-26T02:19:55;10.67;;;8.70;;
6667;SDS011;3370;47.712;9.082;2023-06-26T02:22:21;10.13;;;8.20;;
6667;SDS011;3370;47.712;9.082;2023-06-26T02:24:47;9.23;;;8.23;;
6667;SDS011;3370;47.712;9.082;2023-06-26T02:27:13;10.70;;;8.50;;
6667;SDS011;3370;47.712;9.082;2023-06-26T02:29:39;10.00;;;8.27;;
6667;SDS011;3370;47.712;9.082;2023-06-26T02:32:06;12.60;;;8.70;;
6667;SDS011;3370;47.712;9.082;2023-06-26T02:34:33;11.03;;;9.20;;
6667;SDS011;3370;47.712;9.082;2023-06-26T02:37:00;11.07;;;9.10;;
6667;SDS011;3370;47.712;9.082;2023-06-26T02:39:26;10.70;;;9.07;;
6667;SDS011;3370;47.712;9.082;2023-06-26T02:41:52;10.80;;;8.50;;
6667;SDS011;3370;47.712;9.082;2023-06-26T02:46:52;11.87;;;9.23;;
6667;SDS011;3370;47.712;9.082;2023-06-26T02:49:18;11.47;;;9.40;;
6667;SDS011;3370;47.712;9.082;2023-06-26T02:51:43;13.10;;;8.70;;
6667;SDS011;3370;47.712;9.082;2023-06-26T02:54:09;11.47;;;8.20;;
6667;SDS011;3370;47.712;9.082;2023-06-26T02:56:35;12.90;;;8.80;;
6667;SDS011;3370;47.712;9.082;2023-06-26T02:59:01;10.20;;;8.43;;
6667;SDS011;3370;47.712;9.082;2023-06-26T03:01:26;9.60;;;8.40;;
6667;SDS011;3370;47.712;9.082;2023-06-26T03:03:52;13.23;;;9.40;;
6667;SDS011;3370;47.712;9.082;2023-06-26T03:06:18;11.03;;;9.20;;
6667;SDS011;3370;47.712;9.082;2023-06-26T03:08:43;14.17;;;9.60;;
6667;SDS011;3370;47.712;9.082;2023-06-26T03:11:09;10.27;;;8.87;;
6667;SDS011;3370;47.712;9.082;2023-06-26T03:13:35;12.60;;;8.80;;
6667;SDS011;3370;47.712;9.082;2023-06-26T03:16:02;11.50;;;9.13;;
6667;SDS011;3370;47.712;9.082;2023-06-26T03:18:29;10.17;;;8.97;;
6667;SDS011;3370;47.712;9.082;2023-06-26T03:20:55;10.70;;;8.10;;
6667;SDS011;3370;47.712;9.082;2023-06-26T03:23:22;12.00;;;9.47;;
6667;SDS011;3370;47.712;9.082;2023-06-26T03:25:49;10.20;;;9.10;;
6667;SDS011;3370;47.712;9.082;2023-06-26T03:28:15;12.13;;;9.30;;
6667;SDS011;3370;47.712;9.082;2023-06-26T03:30:41;9.70;;;8.70;;
6667;SDS011;3370;47.712;9.082;2023-06-26T03:33:07;9.90;;;8.30;;
6667;SDS011;3370;47.712;9.082;2023-06-26T03:35:33;10.87;;;8.73;;
6667;SDS011;3370;47.712;9.082;2023-06-26T03:37:59;13.00;;;8.70;;
6667;SDS011;3370;47.712;9.082;2023-06-26T03:40:26;11.33;;;9.10;;
6667;SDS011;3370;47.712;9.082;2023-06-26T03:42:52;10.23;;;8.33;;
6667;SDS011;3370;47.712;9.082;2023-06-26T03:45:18;12.07;;;9.07;;
6667;SDS011;3370;47.712;9.082;2023-06-26T03:47:44;11.00;;;8.70;;
6667;SDS011;3370;47.712;9.082;2023-06-26T03:50:13;11.40;;;8.97;;
6667;SDS011;3370;47.712;9.082;2023-06-26T03:52:42;16.10;;;9.27;;
6667;SDS011;3370;47.712;9.082;2023-06-26T03:55:08;11.50;;;8.83;;
6667;SDS011;3370;47.712;9.082;2023-06-26T03:57:34;8.67;;;7.77;;
6667;SDS011;3370;47.712;9.082;2023-06-26T04:00:00;12.50;;;10.00;;
6667;SDS011;3370;47.712;9.082;2023-06-26T04:02:26;12.03;;;8.57;;
6667;SDS011;3370;47.712;9.082;2023-06-26T04:04:52;12.43;;;9.70;;
6667;SDS011;3370;47.712;9.082;2023-06-26T04:07:18;10.67;;;8.90;;
6667;SDS011;3370;47.712;9.082;2023-06-26T04:09:44;10.40;;;9.13;;
6667;SDS011;3370;47.712;9.082;2023-06-26T04:12:10;9.23;;;8.33;;
6667;SDS011;3370;47.712;9.082;2023-06-26T04:14:35;12.60;;;9.43;;
6667;SDS011;3370;47.712;9.082;2023-06-26T04:17:01;10.70;;;9.17;;
6667;SDS011;3370;47.712;9.082;2023-06-26T04:19:28;9.63;;;8.63;;
6667;SDS011;3370;47.712;9.082;2023-06-26T04:21:55;11.80;;;9.20;;
6667;SDS011;3370;47.712;9.082;2023-06-26T04:24:21;12.00;;;9.63;;
6667;SDS011;3370;47.712;9.082;2023-06-26T04:26:47;11.60;;;9.10;;
6667;SDS011;3370;47.712;9.082;2023-06-26T04:29:13;10.00;;;8.70;;
6667;SDS011;3370;47.712;9.082;2023-06-26T04:31:39;12.07;;;9.73;;
6667;SDS011;3370;47.712;9.082;2023-06-26T04:34:05;11.63;;;9.53;;
6667;SDS011;3370;47.712;9.082;2023-06-26T04:36:31;13.60;;;9.90;;
6667;SDS011;3370;47.712;9.082;2023-06-26T04:38:58;13.10;;;9.73;;
6667;SDS011;3370;47.712;9.082;2023-06-26T04:41:24;10.80;;;8.83;;
6667;SDS011;3370;47.712;9.082;2023-06-26T04:43:50;11.53;;;9.10;;
6667;SDS011;3370;47.712;9.082;2023-06-26T04:46:16;11.70;;;9.20;;
6667;SDS011;3370;47.712;9.082;2023-06-26T04:48:42;11.87;;;9.40;;
6667;SDS011;3370;47.712;9.082;2023-06-26T04:51:09;11.53;;;9.13;;
6667;SDS011;3370;47.712;9.082;2023-06-26T04:53:36;12.30;;;9.90;;
6667;SDS011;3370;47.712;9.082;2023-06-26T04:56:02;11.70;;;9.47;;
6667;SDS011;3370;47.712;9.082;2023-06-26T04:58:28;15.37;;;10.00;;
6667;SDS011;3370;47.712;9.082;2023-06-26T05:00:54;12.30;;;9.77;;
6667;SDS011;3370;47.712;9.082;2023-06-26T05:03:21;11.33;;;8.80;;
6667;SDS011;3370;47.712;9.082;2023-06-26T05:05:47;12.00;;;9.23;;
6667;SDS011;3370;47.712;9.082;2023-06-26T05:08:14;11.57;;;9.50;;
6667;SDS011;3370;47.712;9.082;2023-06-26T05:10:57;16.83;;;10.00;;
6667;SDS011;3370;47.712;9.082;2023-06-26T05:13:24;12.20;;;9.40;;
6667;SDS011;3370;47.712;9.082;2023-06-26T05:15:53;11.20;;;8.50;;
6667;SDS011;3370;47.712;9.082;2023-06-26T05:18:18;10.03;;;8.80;;
6667;SDS011;3370;47.712;9.082;2023-06-26T05:20:47;12.10;;;9.53;;
6667;SDS011;3370;47.712;9.082;2023-06-26T05:23:13;13.73;;;10.07;;
6667;SDS011;3370;47.712;9.082;2023-06-26T05:25:41;13.97;;;9.93;;
6667;SDS011;3370;47.712;9.082;2023-06-26T05:28:08;14.50;;;10.90;;
6667;SDS011;3370;47.712;9.082;2023-06-26T05:30:37;13.10;;;10.37;;
6667;SDS011;3370;47.712;9.082;2023-06-26T05:33:03;13.03;;;10.13;;
6667;SDS011;3370;47.712;9.082;2023-06-26T05:35:30;11.63;;;10.23;;
6667;SDS011;3370;47.712;9.082;2023-06-26T05:37:57;13.43;;;10.17;;
6667;SDS011;3370;47.712;9.082;2023-06-26T05:40:24;11.57;;;9.13;;
6667;SDS011;3370;47.712;9.082;2023-06-26T05:42:51;14.80;;;10.13;;
6667;SDS011;3370;47.712;9.082;2023-06-26T05:45:17;11.93;;;10.30;;
6667;SDS011;3370;47.712;9.082;2023-06-26T05:47:43;12.60;;;10.20;;
6667;SDS011;3370;47.712;9.082;2023-06-26T05:50:08;20.67;;;10.03;;
6667;SDS011;3370;47.712;9.082;2023-06-26T05:52:35;11.33;;;9.10;;
6667;SDS011;3370;47.712;9.082;2023-06-26T05:55:02;14.93;;;10.67;;
6667;SDS011;3370;47.712;9.082;2023-06-26T05:57:29;12.93;;;10.07;;
6667;SDS011;3370;47.712;9.082;2023-06-26T05:59:55;22.50;;;10.83;;
6667;SDS011;3370;47.712;9.082;2023-06-26T06:02:22;13.67;;;10.73;;
6667;SDS011;3370;47.712;9.082;2023-06-26T06:04:48;16.20;;;10.60;;
6667;SDS011;3370;47.712;9.082;2023-06-26T06:07:14;14.20;;;11.40;;
6667;SDS011;3370;47.712;9.082;2023-06-26T06:09:40;12.73;;;10.13;;
6667;SDS011;3370;47.712;9.082;2023-06-26T06:12:06;15.90;;;11.20;;
6667;SDS011;3370;47.712;9.082;2023-06-26T06:14:36;16.63;;;11.37;;
6667;SDS011;3370;47.712;9.082;2023-06-26T06:17:01;15.80;;;11.33;;
6667;SDS011;3370;47.712;9.082;2023-06-26T06:19:27;16.00;;;11.70;;
6667;SDS011;3370;47.712;9.082;2023-06-26T06:21:53;17.70;;;12.43;;
6667;SDS011;3370;47.712;9.082;2023-06-26T06:24:19;18.00;;;11.77;;
6667;SDS011;3370;47.712;9.082;2023-06-26T06:26:45;11.90;;;10.47;;
6667;SDS011;3370;47.712;9.082;2023-06-26T06:29:11;15.97;;;11.30;;
6667;SDS011;3370;47.712;9.082;2023-06-26T06:31:37;16.57;;;11.03;;
6667;SDS011;3370;47.712;9.082;2023-06-26T06:34:03;14.37;;;11.07;;
6667;SDS011;3370;47.712;9.082;2023-06-26T06:36:28;15.13;;;11.47;;
6667;SDS011;3370;47.712;9.082;2023-06-26T06:38:54;15.20;;;11.50;;
6667;SDS011;3370;47.712;9.082;2023-06-26T06:41:20;14.03;;;10.77;;
6667;SDS011;3370;47.712;9.082;2023-06-26T06:43:46;13.07;;;9.90;;
6667;SDS011;3370;47.712;9.082;2023-06-26T06:46:12;13.30;;;11.23;;
6667;SDS011;3370;47.712;9.082;2023-06-26T06:48:37;13.17;;;10.93;;
6667;SDS011;3370;47.712;9.082;2023-06-26T06:51:03;12.50;;;11.07;;
6667;SDS011;3370;47.712;9.082;2023-06-26T06:53:29;15.33;;;11.60;;
6667;SDS011;3370;47.712;9.082;2023-06-26T06:55:56;12.53;;;10.90;;
6667;SDS011;3370;47.712;9.082;2023-06-26T06:58:22;14.63;;;10.07;;
6667;SDS011;3370;47.712;9.082;2023-06-26T07:00:48;21.23;;;12.07;;
6667;SDS011;3370;47.712;9.082;2023-06-26T07:03:16;12.23;;;10.37;;
6667;SDS011;3370;47.712;9.082;2023-06-26T07:05:42;14.60;;;12.03;;
6667;SDS011;3370;47.712;9.082;2023-06-26T07:08:08;15.73;;;11.20;;
6667;SDS011;3370;47.712;9.082;2023-06-26T07:10:34;17.40;;;11.93;;
6667;SDS011;3370;47.712;9.082;2023-06-26T07:13:00;15.73;;;11.83;;
6667;SDS011;3370;47.712;9.082;2023-06-26T07:15:25;15.53;;;12.00;;
6667;SDS011;3370;47.712;9.082;2023-06-26T07:17:51;15.80;;;12.10;;
6667;SDS011;3370;47.712;9.082;2023-06-26T07:20:17;16.43;;;12.23;;
6667;SDS011;3370;47.712;9.082;2023-06-26T07:22:43;14.90;;;11.83;;
6667;SDS011;3370;47.712;9.082;2023-06-26T07:25:10;15.03;;;12.50;;
6667;SDS011;3370;47.712;9.082;2023-06-26T07:27:40;17.70;;;13.13;;
6667;SDS011;3370;47.712;9.082;2023-06-26T07:30:06;17.60;;;11.87;;
6667;SDS011;3370;47.712;9.082;2023-06-26T07:32:36;14.20;;;11.43;;
6667;SDS011;3370;47.712;9.082;2023-06-26T07:35:03;16.80;;;12.73;;
6667;SDS011;3370;47.712;9.082;2023-06-26T07:37:30;15.17;;;11.60;;
6667;SDS011;3370;47.712;9.082;2023-06-26T07:39:56;13.90;;;11.67;;
6667;SDS011;3370;47.712;9.082;2023-06-26T07:42:22;14.30;;;11.47;;
6667;SDS011;3370;47.712;9.082;2023-06-26T07:44:48;16.40;;;11.33;;
6667;SDS011;3370;47.712;9.082;2023-06-26T07:47:14;19.13;;;12.60;;
6667;SDS011;3370;47.712;9.082;2023-06-26T07:49:40;14.33;;;11.20;;
6667;SDS011;3370;47.712;9.082;2023-06-26T07:52:06;19.03;;;11.87;;
6667;SDS011;3370;47.712;9.082;2023-06-26T07:54:35;14.20;;;12.53;;
6667;SDS011;3370;47.712;9.082;2023-06-26T07:57:02;13.50;;;12.00;;
6667;SDS011;3370;47.712;9.082;2023-06-26T07:59:32;13.53;;;11.03;;
6667;SDS011;3370;47.712;9.082;2023-06-26T08:01:58;21.13;;;11.87;;
6667;SDS011;3370;47.712;9.082;2023-06-26T08:04:25;16.20;;;11.00;;
6667;SDS011;3370;47.712;9.082;2023-06-26T08:06:53;15.43;;;10.10;;
6667;SDS011;3370;47.712;9.082;2023-06-26T08:09:21;12.23;;;10.93;;
6667;SDS011;3370;47.712;9.082;2023-06-26T08:11:50;19.23;;;11.27;;
6667;SDS011;3370;47.712;9.082;2023-06-26T08:14:16;13.20;;;10.73;;
6667;SDS011;3370;47.712;9.082;2023-06-26T08:16:43;14.50;;;10.50;;
6667;SDS011;3370;47.712;9.082;2023-06-26T08:19:09;13.60;;;11.40;;
6667;SDS011;3370;47.712;9.082;2023-06-26T08:21:36;15.83;;;10.90;;
6667;SDS011;3370;47.712;9.082;2023-06-26T08:24:02;14.70;;;10.37;;
6667;SDS011;3370;47.712;9.082;2023-06-26T08:26:29;14.00;;;10.60;;
6667;SDS011;3370;47.712;9.082;2023-06-26T08:28:55;12.30;;;9.97;;
6667;SDS011;3370;47.712;9.082;2023-06-26T08:31:20;11.73;;;10.40;;
6667;SDS011;3370;47.712;9.082;2023-06-26T08:33:46;12.17;;;9.90;;
6667;SDS011;3370;47.712;9.082;2023-06-26T08:36:12;13.60;;;10.50;;
6667;SDS011;3370;47.712;9.082;2023-06-26T08:38:38;17.17;;;10.60;;
6667;SDS011;3370;47.712;9.082;2023-06-26T08:41:07;11.07;;;9.53;;
6667;SDS011;3370;47.712;9.082;2023-06-26T08:43:35;12.73;;;9.73;;
6667;SDS011;3370;47.712;9.082;2023-06-26T08:46:01;11.93;;;9.87;;
6667;SDS011;3370;47.712;9.082;2023-06-26T08:48:35;10.90;;;9.77;;
6667;SDS011;3370;47.712;9.082;2023-06-26T08:51:11;10.77;;;8.87;;
6667;SDS011;3370;47.712;9.082;2023-06-26T08:53:49;12.10;;;9.43;;
6667;SDS011;3370;47.712;9.082;2023-06-26T08:56:37;15.23;;;9.97;;
6667;SDS011;3370;47.712;9.082;2023-06-26T08:59:09;10.77;;;9.70;;
6667;SDS011;3370;47.712;9.082;2023-06-26T09:01:39;12.23;;;10.57;;
6667;SDS011;3370;47.712;9.082;2023-06-26T09:04:06;10.53;;;8.60;;
6667;SDS011;3370;47.712;9.082;2023-06-26T09:06:32;10.03;;;9.07;;
6667;SDS011;3370;47.712;9.082;2023-06-26T09:08:59;11.87;;;9.33;;
6667;SDS011;3370;47.712;9.082;2023-06-26T09:11:24;10.13;;;9.20;;
6667;SDS011;3370;47.712;9.082;2023-06-26T09:13:50;13.07;;;9.17;;
6667;SDS011;3370;47.712;9.082;2023-06-26T09:16:17;10.90;;;9.63;;
6667;SDS011;3370;47.712;9.082;2023-06-26T09:18:44;10.73;;;8.80;;
6667;SDS011;3370;47.712;9.082;2023-06-26T09:21:11;12.07;;;9.57;;
6667;SDS011;3370;47.712;9.082;2023-06-26T09:23:39;13.20;;;9.40;;
6667;SDS011;3370;47.712;9.082;2023-06-26T09:26:06;10.17;;;9.03;;
6667;SDS011;3370;47.712;9.082;2023-06-26T09:28:32;11.37;;;9.47;;
6667;SDS011;3370;47.712;9.082;2023-06-26T09:31:00;9.67;;;8.60;;
6667;SDS011;3370;47.712;9.082;2023-06-26T09:33:34;13.80;;;8.77;;
6667;SDS011;3370;47.712;9.082;2023-06-26T09:36:01;11.27;;;8.83;;
6667;SDS011;3370;47.712;9.082;2023-06-26T09:38:32;10.23;;;8.83;;
6667;SDS011;3370;47.712;9.082;2023-06-26T09:41:00;12.67;;;9.13;;
6667;SDS011;3370;47.712;9.082;2023-06-26T09:43:27;11.90;;;9.03;;
6667;SDS011;3370;47.712;9.082;2023-06-26T09:45:53;9.47;;;7.90;;
6667;SDS011;3370;47.712;9.082;2023-06-26T09:48:20;14.23;;;9.40;;
6667;SDS011;3370;47.712;9.082;2023-06-26T09:50:46;10.87;;;8.17;;
6667;SDS011;3370;47.712;9.082;2023-06-26T09:53:12;13.10;;;8.10;;
6667;SDS011;3370;47.712;9.082;2023-06-26T09:55:39;9.33;;;8.30;;
6667;SDS011;3370;47.712;9.082;2023-06-26T09:58:09;13.30;;;8.17;;
6667;SDS011;3370;47.712;9.082;2023-06-26T10:00:40;12.13;;;7.57;;
6667;SDS011;3370;47.712;9.082;2023-06-26T10:03:10;9.43;;;8.40;;
6667;SDS011;3370;47.712;9.082;2023-06-26T10:05:38;9.50;;;8.17;;
6667;SDS011;3370;47.712;9.082;2023-06-26T10:08:05;9.27;;;8.07;;
6667;SDS011;3370;47.712;9.082;2023-06-26T10:10:32;9.13;;;8.20;;
6667;SDS011;3370;47.712;9.082;2023-06-26T10:13:04;7.80;;;7.10;;
6667;SDS011;3370;47.712;9.082;2023-06-26T10:15:40;8.80;;;8.00;;
6667;SDS011;3370;47.712;9.082;2023-06-26T10:18:10;10.50;;;7.80;;
6667;SDS011;3370;47.712;9.082;2023-06-26T10:20:38;13.20;;;7.50;;
6667;SDS011;3370;47.712;9.082;2023-06-26T10:23:07;12.27;;;8.03;;
6667;SDS011;3370;47.712;9.082;2023-06-26T10:25:34;9.73;;;7.53;;
6667;SDS011;3370;47.712;9.082;2023-06-26T10:28:02;9.07;;;8.17;;
6667;SDS011;3370;47.712;9.082;2023-06-26T10:30:30;10.57;;;8.63;;
6667;SDS011;3370;47.712;9.082;2023-06-26T10:33:00;8.30;;;7.50;;
6667;SDS011;3370;47.712;9.082;2023-06-26T10:35:27;11.83;;;7.73;;
6667;SDS011;3370;47.712;9.082;2023-06-26T10:37:54;8.77;;;7.87;;
6667;SDS011;3370;47.712;9.082;2023-06-26T10:40:39;11.90;;;6.90;;
6667;SDS011;3370;47.712;9.082;2023-06-26T10:43:11;8.73;;;7.93;;
6667;SDS011;3370;47.712;9.082;2023-06-26T10:45:46;9.73;;;8.00;;
6667;SDS011;3370;47.712;9.082;2023-06-26T10:48:19;9.50;;;7.57;;
6667;SDS011;3370;47.712;9.082;2023-06-26T10:50:49;10.93;;;6.90;;
6667;SDS011;3370;47.712;9.082;2023-06-26T10:55:49;8.00;;;7.00;;
6667;SDS011;3370;47.712;9.082;2023-06-26T11:04:03;8.30;;;7.07;;
6667;SDS011;3370;47.712;9.082;2023-06-26T11:06:31;12.63;;;7.30;;
6667;SDS011;3370;47.712;9.082;2023-06-26T11:14:26;9.17;;;7.00;;
6667;SDS011;3370;47.712;9.082;2023-06-26T11:16:52;10.27;;;6.90;;
6667;SDS011;3370;47.712;9.082;2023-06-26T11:19:21;8.80;;;7.40;;
6667;SDS011;3370;47.712;9.082;2023-06-26T11:21:47;9.07;;;6.83;;
6667;SDS011;3370;47.712;9.082;2023-06-26T11:24:14;10.50;;;7.03;;
6667;SDS011;3370;47.712;9.082;2023-06-26T11:26:41;7.57;;;6.90;;
6667;SDS011;3370;47.712;9.082;2023-06-26T11:29:09;11.73;;;7.10;;
6667;SDS011;3370;47.712;9.082;2023-06-26T11:31:37;9.97;;;6.70;;
6667;SDS011;3370;47.712;9.082;2023-06-26T11:34:06;8.30;;;7.00;;
6667;SDS011;3370;47.712;9.082;2023-06-26T11:36:35;8.10;;;7.30;;
6667;SDS011;3370;47.712;9.082;2023-06-26T11:39:02;7.67;;;6.97;;
6667;SDS011;3370;47.712;9.082;2023-06-26T11:41:33;8.77;;;7.40;;
6667;SDS011;3370;47.712;9.082;2023-06-26T11:44:05;7.93;;;7.13;;
6667;SDS011;3370;47.712;9.082;2023-06-26T11:46:34;7.67;;;6.97;;
6667;SDS011;3370;47.712;9.082;2023-06-26T11:49:04;7.73;;;7.00;;
6667;SDS011;3370;47.712;9.082;2023-06-26T11:51:31;9.27;;;7.63;;
6667;SDS011;3370;47.712;9.082;2023-06-26T11:54:00;14.87;;;8.60;;
6667;SDS011;3370;47.712;9.082;2023-06-26T11:56:30;9.57;;;7.03;;
6667;SDS011;3370;47.712;9.082;2023-06-26T12:01:43;8.97;;;7.47;;
6667;SDS011;3370;47.712;9.082;2023-06-26T12:04:10;11.53;;;8.37;;
6667;SDS011;3370;47.712;9.082;2023-06-26T12:06:40;9.60;;;8.60;;
6667;SDS011;3370;47.712;9.082;2023-06-26T12:09:13;12.83;;;7.37;;
6667;SDS011;3370;47.712;9.082;2023-06-26T12:11:40;8.53;;;7.67;;
6667;SDS011;3370;47.712;9.082;2023-06-26T12:14:08;15.93;;;8.30;;
6667;SDS011;3370;47.712;9.082;2023-06-26T12:16:35;8.13;;;7.30;;
6667;SDS011;3370;47.712;9.082;2023-06-26T12:19:03;20.57;;;7.37;;
6667;SDS011;3370;47.712;9.082;2023-06-26T12:24:05;8.23;;;7.40;;
6667;SDS011;3370;47.712;9.082;2023-06-26T12:26:33;21.60;;;14.30;;
6667;SDS011;3370;47.712;9.082;2023-06-26T12:29:03;13.93;;;11.60;;
6667;SDS011;3370;47.712;9.082;2023-06-26T12:31:34;17.90;;;10.03;;
6667;SDS011;3370;47.712;9.082;2023-06-26T12:34:08;14.10;;;7.93;;
6667;SDS011;3370;47.712;9.082;2023-06-26T12:36:43;9.57;;;8.00;;
6667;SDS011;3370;47.712;9.082;2023-06-26T12:39:21;20.73;;;11.83;;
6667;SDS011;3370;47.712;9.082;2023-06-26T12:44:17;16.90;;;10.70;;
6667;SDS011;3370;47.712;9.082;2023-06-26T12:46:48;17.93;;;11.70;;
6667;SDS011;3370;47.712;9.082;2023-06-26T12:49:15;15.83;;;9.03;;
6667;SDS011;3370;47.712;9.082;2023-06-26T12:51:42;15.03;;;9.80;;
6667;SDS011;3370;47.712;9.082;2023-06-26T12:54:08;11.23;;;8.50;;
6667;SDS011;3370;47.712;9.082;2023-06-26T12:56:35;9.20;;;8.30;;
6667;SDS011;3370;47.712;9.082;2023-06-26T12:59:00;8.70;;;7.83;;
6667;SDS011;3370;47.712;9.082;2023-06-26T13:01:26;8.10;;;7.30;;
6667;SDS011;3370;47.712;9.082;2023-06-26T13:03:53;8.87;;;7.97;;
6667;SDS011;3370;47.712;9.082;2023-06-26T13:06:19;8.90;;;7.60;;
6667;SDS011;3370;47.712;9.082;2023-06-26T13:08:46;9.40;;;8.40;;
6667;SDS011;3370;47.712;9.082;2023-06-26T13:11:12;15.20;;;7.37;;
6667;SDS011;3370;47.712;9.082;2023-06-26T13:13:38;11.37;;;7.60;;
6667;SDS011;3370;47.712;9.082;2023-06-26T13:16:04;11.90;;;7.60;;
6667;SDS011;3370;47.712;9.082;2023-06-26T13:18:30;8.93;;;7.73;;
6667;SDS011;3370;47.712;9.082;2023-06-26T13:20:56;12.67;;;8.07;;
6667;SDS011;3370;47.712;9.082;2023-06-26T13:23:21;12.97;;;9.37;;
6667;SDS011;3370;47.712;9.082;2023-06-26T13:25:47;10.40;;;8.03;;
6667;SDS011;3370;47.712;9.082;2023-06-26T13:28:13;12.90;;;8.70;;
6667;SDS011;3370;47.712;9.082;2023-06-26T13:30:39;10.07;;;9.07;;
6667;SDS011;3370;47.712;9.082;2023-06-26T13:33:05;11.07;;;8.27;;
6667;SDS011;3370;47.712;9.082;2023-06-26T13:35:31;16.83;;;8.90;;
6667;SDS011;3370;47.712;9.082;2023-06-26T13:37:57;12.00;;;8.30;;
6667;SDS011;3370;47.712;9.082;2023-06-26T13:40:23;11.23;;;8.53;;
6667;SDS011;3370;47.712;9.082;2023-06-26T13:42:48;15.23;;;8.00;;
6667;SDS011;3370;47.712;9.082;2023-06-26T13:45:14;10.20;;;8.80;;
6667;SDS011;3370;47.712;9.082;2023-06-26T13:47:40;11.10;;;8.20;;
6667;SDS011;3370;47.712;9.082;2023-06-26T13:50:09;10.00;;;8.77;;
6667;SDS011;3370;47.712;9.082;2023-06-26T13:52:35;14.93;;;9.07;;
6667;SDS011;3370;47.712;9.082;2023-06-26T13:55:01;11.47;;;8.77;;
6667;SDS011;3370;47.712;9.082;2023-06-26T13:57:29;13.33;;;8.97;;
6667;SDS011;3370;47.712;9.082;2023-06-26T13:59:56;10.97;;;8.20;;
6667;SDS011;3370;47.712;9.082;2023-06-26T14:02:22;14.70;;;8.50;;
6667;SDS011;3370;47.712;9.082;2023-06-26T14:04:47;11.90;;;8.80;;
6667;SDS011;3370;47.712;9.082;2023-06-26T14:07:16;9.67;;;8.57;;
6667;SDS011;3370;47.712;9.082;2023-06-26T14:09:42;10.20;;;9.00;;
6667;SDS011;3370;47.712;9.082;2023-06-26T14:12:07;10.37;;;8.50;;
6667;SDS011;3370;47.712;9.082;2023-06-26T14:14:33;11.50;;;8.73;;
6667;SDS011;3370;47.712;9.082;2023-06-26T14:16:59;11.90;;;8.73;;
6667;SDS011;3370;47.712;9.082;2023-06-26T14:19:25;11.20;;;8.20;;
6667;SDS011;3370;47.712;9.082;2023-06-26T14:21:51;11.67;;;8.00;;
6667;SDS011;3370;47.712;9.082;2023-06-26T14:24:17;9.47;;;8.40;;
6667;SDS011;3370;47.712;9.082;2023-06-26T14:26:43;9.87;;;8.80;;
6667;SDS011;3370;47.712;9.082;2023-06-26T14:29:09;11.70;;;7.90;;
6667;SDS011;3370;47.712;9.082;2023-06-26T14:31:34;9.30;;;8.20;;
6667;SDS011;3370;47.712;9.082;2023-06-26T14:34:00;9.60;;;8.70;;
6667;SDS011;3370;47.712;9.082;2023-06-26T14:36:27;9.20;;;8.30;;
6667;SDS011;3370;47.712;9.082;2023-06-26T14:38:56;8.93;;;8.00;;
6667;SDS011;3370;47.712;9.082;2023-06-26T14:41:21;15.20;;;9.03;;
6667;SDS011;3370;47.712;9.082;2023-06-26T14:43:47;9.50;;;8.10;;
6667;SDS011;3370;47.712;9.082;2023-06-26T14:46:13;12.50;;;9.10;;
6667;SDS011;3370;47.712;9.082;2023-06-26T14:48:39;10.13;;;8.73;;
6667;SDS011;3370;47.712;9.082;2023-06-26T14:51:05;10.97;;;8.20;;
6667;SDS011;3370;47.712;9.082;2023-06-26T14:53:30;10.73;;;8.40;;
6667;SDS011;3370;47.712;9.082;2023-06-26T14:55:56;10.80;;;8.77;;
6667;SDS011;3370;47.712;9.082;2023-06-26T14:58:22;12.30;;;8.00;;
6667;SDS011;3370;47.712;9.082;2023-06-26T15:00:48;9.80;;;8.40;;
6667;SDS011;3370;47.712;9.082;2023-06-26T15:03:13;10.40;;;8.00;;
6667;SDS011;3370;47.712;9.082;2023-06-26T15:05:39;10.50;;;8.87;;
6667;SDS011;3370;47.712;9.082;2023-06-26T15:08:05;18.20;;;8.00;;
6667;SDS011;3370;47.712;9.082;2023-06-26T15:10:31;11.17;;;9.63;;
6667;SDS011;3370;47.712;9.082;2023-06-26T15:12:56;11.57;;;8.70;;
6667;SDS011;3370;47.712;9.082;2023-06-26T15:15:23;9.87;;;7.90;;
6667;SDS011;3370;47.712;9.082;2023-06-26T15:17:49;10.90;;;8.77;;
6667;SDS011;3370;47.712;9.082;2023-06-26T15:20:15;15.50;;;9.00;;
6667;SDS011;3370;47.712;9.082;2023-06-26T15:22:41;11.07;;;9.30;;
6667;SDS011;3370;47.712;9.082;2023-06-26T15:25:07;10.23;;;9.17;;
6667;SDS011;3370;47.712;9.082;2023-06-26T15:27:33;10.30;;;9.17;;
6667;SDS011;3370;47.712;9.082;2023-06-26T15:29:58;11.17;;;9.13;;
6667;SDS011;3370;47.712;9.082;2023-06-26T15:32:24;11.10;;;9.23;;